createdAt,value
2019-06-26T00:00:08.129Z,0.00
2019-06-26T00:01:08.105Z,0.00
2019-06-26T00:02:08.091Z,0.00
2019-06-26T00:03:08.090Z,0.00
2019-06-26T00:04:08.092Z,0.00
2019-06-26T00:05:08.062Z,0.00
2019-06-26T00:06:08.075Z,0.00
2019-06-26T00:07:08.040Z,0.00
2019-06-26T00:08:08.026Z,0.00
2019-06-26T00:09:08.041Z,0.00
2019-06-26T00:10:08.014Z,0.00
2019-06-26T00:11:07.994Z,0.00
2019-06-26T00:12:07.984Z,0.00
2019-06-26T00:13:07.975Z,0.00
2019-06-26T00:14:07.967Z,0.00
2019-06-26T00:15:07.969Z,0.00
2019-06-26T00:16:07.958Z,0.00
2019-06-26T00:17:07.931Z,0.00
2019-06-26T00:18:07.923Z,0.00
2019-06-26T00:19:07.924Z,0.00
2019-06-26T00:20:07.920Z,0.00
2019-06-26T00:21:07.901Z,0.00
2019-06-26T00:22:07.879Z,0.00
2019-06-26T00:23:07.868Z,0.00
2019-06-26T00:24:07.999Z,0.00
2019-06-26T00:25:07.843Z,0.00
2019-06-26T00:26:07.850Z,0.00
2019-06-26T00:27:07.827Z,0.00
2019-06-26T00:28:07.809Z,0.00
2019-06-26T00:29:07.794Z,0.00
2019-06-26T00:30:07.782Z,0.00
2019-06-26T00:31:07.792Z,0.00
2019-06-26T00:32:07.765Z,0.00
2019-06-26T00:33:07.752Z,0.00
2019-06-26T00:34:07.738Z,0.00
2019-06-26T00:35:07.730Z,0.00
2019-06-26T00:36:07.740Z,0.00
2019-06-26T00:37:07.708Z,0.00
2019-06-26T00:38:07.719Z,0.00
2019-06-26T00:39:07.693Z,0.00
2019-06-26T00:40:07.676Z,0.00
2019-06-26T00:41:07.666Z,0.00
2019-06-26T00:42:07.663Z,0.00
2019-06-26T00:43:07.645Z,0.00
2019-06-26T00:44:07.631Z,0.00
2019-06-26T00:45:07.753Z,0.00
2019-06-26T00:46:07.607Z,0.00
2019-06-26T00:47:07.625Z,0.00
2019-06-26T00:48:07.588Z,0.00
2019-06-26T00:49:07.578Z,0.00
2019-06-26T00:50:07.562Z,0.00
2019-06-26T00:51:07.553Z,0.00
2019-06-26T00:52:07.541Z,0.00
2019-06-26T00:53:07.550Z,0.00
2019-06-26T00:54:07.523Z,0.00
2019-06-26T00:55:07.506Z,0.00
2019-06-26T00:56:07.513Z,0.00
2019-06-26T00:57:07.493Z,0.00
2019-06-26T00:58:07.514Z,0.00
2019-06-26T00:59:07.480Z,0.00
2019-06-26T01:00:07.467Z,0.00
2019-06-26T01:01:07.448Z,0.00
2019-06-26T01:02:07.439Z,0.00
2019-06-26T01:03:07.426Z,0.00
2019-06-26T01:04:07.438Z,0.00
2019-06-26T01:05:07.396Z,0.00
2019-06-26T01:06:07.389Z,0.00
2019-06-26T01:07:07.381Z,0.00
2019-06-26T01:08:07.367Z,0.00
2019-06-26T01:09:07.356Z,0.00
2019-06-26T01:10:07.365Z,0.00
2019-06-26T01:11:07.332Z,0.00
2019-06-26T01:12:07.320Z,0.00
2019-06-26T01:13:07.309Z,0.00
2019-06-26T01:14:07.315Z,0.00
2019-06-26T01:15:07.304Z,0.00
2019-06-26T01:16:07.280Z,0.00
2019-06-26T01:17:07.269Z,0.00
2019-06-26T01:18:07.267Z,0.00
2019-06-26T01:19:07.245Z,0.00
2019-06-26T01:20:07.264Z,0.00
2019-06-26T01:21:07.223Z,0.00
2019-06-26T01:22:07.218Z,0.00
2019-06-26T01:23:07.198Z,0.00
2019-06-26T01:24:07.216Z,0.00
2019-06-26T01:25:07.171Z,0.00
2019-06-26T01:26:07.170Z,0.00
2019-06-26T01:27:07.156Z,0.00
2019-06-26T01:28:07.150Z,0.00
2019-06-26T01:29:07.128Z,0.00
2019-06-26T01:30:07.142Z,0.00
2019-06-26T01:31:07.120Z,0.00
2019-06-26T01:32:07.114Z,0.00
2019-06-26T01:33:07.093Z,0.00
2019-06-26T01:34:07.081Z,0.00
2019-06-26T01:35:07.065Z,0.00
2019-06-26T01:36:07.076Z,0.00
2019-06-26T01:37:07.043Z,0.00
2019-06-26T01:38:07.030Z,0.00
2019-06-26T01:39:07.039Z,0.00
2019-06-26T01:40:07.021Z,0.00
2019-06-26T01:41:07.019Z,0.00
2019-06-26T01:42:06.986Z,0.00
2019-06-26T01:43:06.990Z,0.00
2019-06-26T01:44:15.009Z,0.00
2019-06-26T01:45:07.951Z,0.00
2019-06-26T01:46:06.947Z,0.00
2019-06-26T01:47:06.947Z,0.00
2019-06-26T01:48:06.928Z,0.00
2019-06-26T01:49:06.916Z,0.00
2019-06-26T01:50:06.896Z,0.00
2019-06-26T01:51:06.896Z,0.00
2019-06-26T01:52:06.907Z,0.00
2019-06-26T01:53:06.869Z,0.00
2019-06-26T01:54:06.851Z,0.00
2019-06-26T01:55:06.843Z,0.00
2019-06-26T01:56:06.836Z,0.00
2019-06-26T01:57:06.818Z,0.00
2019-06-26T01:58:06.823Z,0.00
2019-06-26T01:59:06.810Z,0.00
2019-06-26T02:00:06.792Z,0.00
2019-06-26T02:01:06.776Z,0.00
2019-06-26T02:02:06.776Z,0.00
2019-06-26T02:03:06.775Z,0.00
2019-06-26T02:04:06.755Z,0.00
2019-06-26T02:05:06.888Z,0.00
2019-06-26T02:06:06.720Z,0.00
2019-06-26T02:07:06.710Z,0.00
2019-06-26T02:08:06.703Z,0.00
2019-06-26T02:09:06.712Z,0.00
2019-06-26T02:10:06.697Z,0.00
2019-06-26T02:11:06.698Z,0.00
2019-06-26T02:12:06.695Z,0.00
2019-06-26T02:13:06.655Z,0.00
2019-06-26T02:14:06.634Z,0.00
2019-06-26T02:15:06.631Z,0.00
2019-06-26T02:16:06.611Z,0.00
2019-06-26T02:17:06.610Z,0.00
2019-06-26T02:18:06.603Z,0.00
2019-06-26T02:19:06.581Z,0.00
2019-06-26T02:20:06.617Z,0.00
2019-06-26T02:21:06.557Z,0.00
2019-06-26T02:22:06.553Z,0.00
2019-06-26T02:23:06.535Z,4.00
2019-06-26T02:24:06.552Z,4.00
2019-06-26T02:25:06.520Z,4.00
2019-06-26T02:26:06.520Z,4.00
2019-06-26T02:27:06.511Z,0.00
2019-06-26T02:28:06.487Z,4.00
2019-06-26T02:29:06.469Z,4.00
2019-06-26T02:30:06.459Z,4.00
2019-06-26T02:31:06.495Z,8.00
2019-06-26T02:32:06.438Z,4.00
2019-06-26T02:33:06.423Z,8.00
2019-06-26T02:34:06.417Z,4.00
2019-06-26T02:35:09.983Z,8.00
2019-06-26T02:36:06.392Z,8.00
2019-06-26T02:37:06.398Z,12.00
2019-06-26T02:38:06.373Z,12.00
2019-06-26T02:39:06.373Z,12.00
2019-06-26T02:40:06.351Z,16.00
2019-06-26T02:41:06.357Z,16.00
2019-06-26T02:42:06.344Z,16.00
2019-06-26T02:43:07.194Z,20.00
2019-06-26T02:44:06.312Z,24.00
2019-06-26T02:45:06.344Z,28.00
2019-06-26T02:46:06.299Z,32.00
2019-06-26T02:47:19.670Z,36.00
2019-06-26T02:48:07.266Z,40.00
2019-06-26T02:49:06.256Z,40.00
2019-06-26T02:50:06.243Z,48.00
2019-06-26T02:51:06.251Z,56.00
2019-06-26T02:52:06.223Z,60.00
2019-06-26T02:53:06.219Z,68.00
2019-06-26T02:54:06.201Z,72.00
2019-06-26T02:55:06.192Z,84.00
2019-06-26T02:56:06.197Z,92.00
2019-06-26T02:57:06.163Z,104.00
2019-06-26T02:58:06.153Z,116.00
2019-06-26T02:59:06.150Z,124.00
2019-06-26T03:00:06.140Z,136.00
2019-06-26T03:01:06.118Z,148.00
2019-06-26T03:02:06.109Z,164.00
2019-06-26T03:03:06.096Z,180.00
2019-06-26T03:04:06.090Z,200.00
2019-06-26T03:05:06.095Z,216.00
2019-06-26T03:06:06.072Z,236.00
2019-06-26T03:07:06.052Z,252.00
2019-06-26T03:08:06.058Z,276.00
2019-06-26T03:09:06.039Z,296.00
2019-06-26T03:10:06.021Z,320.00
2019-06-26T03:11:06.009Z,340.00
2019-06-26T03:12:06.013Z,368.00
2019-06-26T03:13:06.022Z,392.00
2019-06-26T03:14:05.982Z,420.00
2019-06-26T03:15:09.213Z,448.00
2019-06-26T03:16:05.994Z,480.00
2019-06-26T03:17:05.947Z,512.00
2019-06-26T03:18:05.936Z,544.00
2019-06-26T03:19:05.932Z,580.00
2019-06-26T03:20:05.911Z,616.00
2019-06-26T03:21:05.899Z,652.00
2019-06-26T03:22:05.894Z,688.00
2019-06-26T03:23:05.874Z,728.00
2019-06-26T03:24:05.923Z,768.00
2019-06-26T03:25:05.875Z,808.00
2019-06-26T03:26:05.849Z,848.00
2019-06-26T03:27:08.898Z,892.00
2019-06-26T03:28:05.822Z,936.00
2019-06-26T03:29:05.809Z,980.00
2019-06-26T03:30:05.838Z,1024.00
2019-06-26T03:31:05.798Z,1076.00
2019-06-26T03:32:05.774Z,1120.00
2019-06-26T03:33:05.774Z,1172.00
2019-06-26T03:34:05.752Z,1224.00
2019-06-26T03:35:05.801Z,1280.00
2019-06-26T03:36:05.764Z,1332.00
2019-06-26T03:37:05.719Z,1388.00
2019-06-26T03:38:05.709Z,1444.00
2019-06-26T03:39:05.847Z,1504.00
2019-06-26T03:40:05.695Z,1560.00
2019-06-26T03:41:05.677Z,1628.00
2019-06-26T03:42:05.721Z,1692.00
2019-06-26T03:43:05.652Z,1756.00
2019-06-26T03:44:05.650Z,1824.00
2019-06-26T03:45:05.631Z,1896.00
2019-06-26T03:46:05.667Z,1960.00
2019-06-26T03:47:05.616Z,2028.00
2019-06-26T03:48:05.607Z,2100.00
2019-06-26T03:49:05.629Z,2168.00
2019-06-26T03:50:05.578Z,2244.00
2019-06-26T03:51:05.589Z,2312.00
2019-06-26T03:52:05.562Z,2388.00
2019-06-26T03:53:05.546Z,2464.00
2019-06-26T03:54:05.556Z,2540.00
2019-06-26T03:55:05.521Z,2620.00
2019-06-26T03:56:05.508Z,2700.00
2019-06-26T03:57:05.496Z,2784.00
2019-06-26T03:58:05.486Z,2868.00
2019-06-26T03:59:05.475Z,2956.00
2019-06-26T04:00:05.480Z,3044.00
2019-06-26T04:01:05.452Z,3132.00
2019-06-26T04:02:05.494Z,3216.00
2019-06-26T04:03:05.430Z,3304.00
2019-06-26T04:04:05.419Z,3412.00
2019-06-26T04:05:05.548Z,3508.00
2019-06-26T04:06:05.401Z,3596.00
2019-06-26T04:07:05.392Z,3692.00
2019-06-26T04:08:05.410Z,3788.00
2019-06-26T04:09:05.367Z,3888.00
2019-06-26T04:10:05.433Z,3996.00
2019-06-26T04:11:05.345Z,4144.00
2019-06-26T04:12:05.337Z,4336.00
2019-06-26T04:13:05.325Z,4548.00
2019-06-26T04:14:05.344Z,4704.00
2019-06-26T04:15:05.301Z,4864.00
2019-06-26T04:16:05.289Z,5096.00
2019-06-26T04:17:05.286Z,5152.00
2019-06-26T04:18:05.271Z,5140.00
2019-06-26T04:19:05.260Z,5308.00
2019-06-26T04:20:05.280Z,5480.00
2019-06-26T04:21:05.237Z,5564.00
2019-06-26T04:22:05.229Z,5592.00
2019-06-26T04:23:05.210Z,5640.00
2019-06-26T04:24:05.205Z,5820.00
2019-06-26T04:25:05.194Z,6036.00
2019-06-26T04:26:05.197Z,6212.00
2019-06-26T04:27:05.166Z,6308.00
2019-06-26T04:28:06.444Z,6440.00
2019-06-26T04:29:05.147Z,6588.00
2019-06-26T04:30:05.176Z,6732.00
2019-06-26T04:31:05.125Z,6888.00
2019-06-26T04:32:05.123Z,6980.00
2019-06-26T04:33:05.115Z,7108.00
2019-06-26T04:34:05.099Z,7188.00
2019-06-26T04:35:05.085Z,7292.00
2019-06-26T04:36:05.093Z,7340.00
2019-06-26T04:37:05.061Z,7332.00
2019-06-26T04:38:05.046Z,7492.00
2019-06-26T04:39:05.041Z,7768.00
2019-06-26T04:40:05.032Z,7948.00
2019-06-26T04:41:05.035Z,8056.00
2019-06-26T04:42:05.015Z,8228.00
2019-06-26T04:43:04.993Z,8380.00
2019-06-26T04:44:04.992Z,8484.00
2019-06-26T04:45:04.981Z,8600.00
2019-06-26T04:46:04.975Z,8764.00
2019-06-26T04:47:04.957Z,8940.00
2019-06-26T04:48:07.182Z,9208.00
2019-06-26T04:49:04.928Z,9504.00
2019-06-26T04:50:04.925Z,9552.00
2019-06-26T04:51:04.918Z,9644.00
2019-06-26T04:52:04.936Z,9652.00
2019-06-26T04:53:04.891Z,9828.00
2019-06-26T04:54:04.883Z,10644.00
2019-06-26T04:55:04.865Z,11044.00
2019-06-26T04:56:04.865Z,10676.00
2019-06-26T04:57:04.855Z,10584.00
2019-06-26T04:58:04.852Z,10768.00
2019-06-26T04:59:04.819Z,11124.00
2019-06-26T05:00:04.814Z,12000.00
2019-06-26T05:01:04.808Z,12524.00
2019-06-26T05:02:04.791Z,12224.00
2019-06-26T05:03:04.780Z,12108.00
2019-06-26T05:04:04.874Z,12004.00
2019-06-26T05:05:04.774Z,12332.00
2019-06-26T05:06:04.749Z,14112.00
2019-06-26T05:07:04.743Z,15296.00
2019-06-26T05:08:04.732Z,15328.00
2019-06-26T05:09:04.722Z,15168.00
2019-06-26T05:10:04.751Z,14264.00
2019-06-26T05:11:04.693Z,12408.00
2019-06-26T05:12:04.683Z,11756.00
2019-06-26T05:13:04.678Z,11856.00
2019-06-26T05:14:04.660Z,12004.00
2019-06-26T05:15:04.657Z,12068.00
2019-06-26T05:16:14.202Z,12128.00
2019-06-26T05:17:05.635Z,12196.00
2019-06-26T05:18:04.625Z,12352.00
2019-06-26T05:19:04.611Z,12548.00
2019-06-26T05:20:04.615Z,12652.00
2019-06-26T05:21:04.588Z,12892.00
2019-06-26T05:22:04.582Z,13012.00
2019-06-26T05:23:04.573Z,13256.00
2019-06-26T05:24:04.557Z,13340.00
2019-06-26T05:25:04.557Z,13656.00
2019-06-26T05:26:04.546Z,15052.00
2019-06-26T05:27:04.522Z,17632.00
2019-06-26T05:28:08.121Z,18848.00
2019-06-26T05:29:04.504Z,18816.00
2019-06-26T05:30:04.575Z,19488.00
2019-06-26T05:31:04.481Z,20352.00
2019-06-26T05:32:04.488Z,20480.00
2019-06-26T05:33:04.465Z,21120.00
2019-06-26T05:34:04.453Z,21504.00
2019-06-26T05:35:04.439Z,21728.00
2019-06-26T05:36:04.440Z,22656.00
2019-06-26T05:37:04.418Z,22528.00
2019-06-26T05:38:04.408Z,22784.00
2019-06-26T05:39:04.394Z,23104.00
2019-06-26T05:40:04.412Z,23648.00
2019-06-26T05:41:04.383Z,23552.00
2019-06-26T05:42:06.643Z,24032.00
2019-06-26T05:43:04.379Z,25408.00
2019-06-26T05:44:04.344Z,25120.00
2019-06-26T05:45:04.357Z,25920.00
2019-06-26T05:46:04.342Z,26688.00
2019-06-26T05:47:07.067Z,27136.00
2019-06-26T05:48:04.308Z,27456.00
2019-06-26T05:49:04.302Z,27456.00
2019-06-26T05:50:04.280Z,27392.00
2019-06-26T05:51:04.309Z,28000.00
2019-06-26T05:52:04.345Z,27968.00
2019-06-26T05:53:04.252Z,28288.00
2019-06-26T05:54:04.247Z,30080.00
2019-06-26T05:55:04.238Z,30944.00
2019-06-26T05:56:04.221Z,30816.00
2019-06-26T05:57:04.219Z,30784.00
2019-06-26T05:58:04.229Z,29632.00
2019-06-26T05:59:04.192Z,30368.00
2019-06-26T06:00:04.182Z,32288.00
2019-06-26T06:01:04.183Z,33440.00
2019-06-26T06:02:04.186Z,34848.00
2019-06-26T06:03:04.195Z,34496.00
2019-06-26T06:04:04.136Z,34592.00
2019-06-26T06:05:04.124Z,34432.00
2019-06-26T06:06:04.114Z,34144.00
2019-06-26T06:07:04.112Z,35872.00
2019-06-26T06:08:04.109Z,35872.00
2019-06-26T06:09:04.090Z,34336.00
2019-06-26T06:10:04.079Z,34848.00
2019-06-26T06:11:04.069Z,35680.00
2019-06-26T06:12:04.056Z,35456.00
2019-06-26T06:13:04.054Z,36064.00
2019-06-26T06:14:04.037Z,36512.00
2019-06-26T06:15:04.021Z,37888.00
2019-06-26T06:16:06.329Z,36672.00
2019-06-26T06:17:04.003Z,36032.00
2019-06-26T06:18:04.022Z,36480.00
2019-06-26T06:19:03.984Z,37472.00
2019-06-26T06:20:03.978Z,38432.00
2019-06-26T06:21:03.958Z,39872.00
2019-06-26T06:22:03.959Z,39680.00
2019-06-26T06:23:03.946Z,41664.00
2019-06-26T06:24:03.952Z,40416.00
2019-06-26T06:25:03.920Z,40288.00
2019-06-26T06:26:03.910Z,42592.00
2019-06-26T06:27:03.906Z,41472.00
2019-06-26T06:28:03.895Z,41568.00
2019-06-26T06:29:03.887Z,42304.00
2019-06-26T06:30:03.920Z,43008.00
2019-06-26T06:31:03.861Z,43136.00
2019-06-26T06:32:03.845Z,44768.00
2019-06-26T06:33:03.832Z,45344.00
2019-06-26T06:34:03.824Z,46016.00
2019-06-26T06:35:03.919Z,46080.00
2019-06-26T06:36:03.818Z,45632.00
2019-06-26T06:37:03.797Z,46112.00
2019-06-26T06:38:03.804Z,45728.00
2019-06-26T06:39:03.783Z,46720.00
2019-06-26T06:40:03.772Z,46432.00
2019-06-26T06:41:03.777Z,47744.00
2019-06-26T06:42:03.747Z,48160.00
2019-06-26T06:43:03.741Z,49376.00
2019-06-26T06:44:03.756Z,50240.00
2019-06-26T06:45:03.716Z,48000.00
2019-06-26T06:46:03.717Z,47808.00
2019-06-26T06:47:05.621Z,50464.00
2019-06-26T06:48:03.689Z,51360.00
2019-06-26T06:49:03.674Z,50528.00
2019-06-26T06:50:03.775Z,49760.00
2019-06-26T06:51:03.689Z,49568.00
2019-06-26T06:52:03.664Z,51296.00
2019-06-26T06:53:03.634Z,50112.00
2019-06-26T06:54:03.623Z,49440.00
2019-06-26T06:55:03.612Z,49984.00
2019-06-26T06:56:03.624Z,52096.00
2019-06-26T06:57:03.618Z,53920.00
2019-06-26T06:58:03.582Z,56192.00
2019-06-26T06:59:03.575Z,58208.00
2019-06-26T07:00:03.572Z,57568.00
2019-06-26T07:01:03.556Z,56800.00
2019-06-26T07:02:03.554Z,57056.00
2019-06-26T07:03:03.552Z,58720.00
2019-06-26T07:04:03.530Z,60000.00
2019-06-26T07:05:03.516Z,61632.00
2019-06-26T07:06:03.509Z,61408.00
2019-06-26T07:07:03.499Z,61728.00
2019-06-26T07:08:03.489Z,62080.00
2019-06-26T07:09:03.490Z,62976.00
2019-06-26T07:10:03.527Z,63904.00
2019-06-26T07:11:03.461Z,64160.00
2019-06-26T07:12:03.441Z,61152.00
2019-06-26T07:13:03.434Z,61120.00
2019-06-26T07:14:03.436Z,62912.00
2019-06-26T07:15:03.418Z,64416.00
2019-06-26T07:16:03.411Z,65280.00
2019-06-26T07:17:16.080Z,66624.00
2019-06-26T07:18:04.393Z,67808.00
2019-06-26T07:19:03.380Z,65248.00
2019-06-26T07:20:03.386Z,66272.00
2019-06-26T07:21:03.365Z,67776.00
2019-06-26T07:22:06.975Z,66976.00
2019-06-26T07:23:03.352Z,66656.00
2019-06-26T07:24:03.378Z,68032.00
2019-06-26T07:25:03.323Z,65376.00
2019-06-26T07:26:03.305Z,68480.00
2019-06-26T07:27:03.304Z,68000.00
2019-06-26T07:28:03.363Z,68640.00
2019-06-26T07:29:03.286Z,69824.00
2019-06-26T07:30:03.321Z,68032.00
2019-06-26T07:31:03.267Z,67872.00
2019-06-26T07:32:03.265Z,69088.00
2019-06-26T07:33:03.240Z,68512.00
2019-06-26T07:34:03.237Z,68288.00
2019-06-26T07:35:03.234Z,71168.00
2019-06-26T07:36:03.229Z,71552.00
2019-06-26T07:37:03.204Z,72032.00
2019-06-26T07:38:03.188Z,69760.00
2019-06-26T07:39:03.189Z,68704.00
2019-06-26T07:40:03.225Z,68928.00
2019-06-26T07:41:03.407Z,67552.00
2019-06-26T07:42:03.172Z,65696.00
2019-06-26T07:43:03.140Z,64288.00
2019-06-26T07:44:03.137Z,66816.00
2019-06-26T07:45:03.128Z,65376.00
2019-06-26T07:46:03.125Z,63392.00
2019-06-26T07:47:03.111Z,67264.00
2019-06-26T07:48:03.110Z,74528.00
2019-06-26T07:49:03.106Z,72608.00
2019-06-26T07:50:03.139Z,75744.00
2019-06-26T07:51:03.084Z,77888.00
2019-06-26T07:52:03.069Z,76128.00
2019-06-26T07:53:03.050Z,70336.00
2019-06-26T07:54:03.049Z,68960.00
2019-06-26T07:55:03.051Z,72320.00
2019-06-26T07:56:03.021Z,67776.00
2019-06-26T07:57:03.011Z,68576.00
2019-06-26T07:58:03.018Z,75360.00
2019-06-26T07:59:02.992Z,77312.00
2019-06-26T08:00:02.992Z,78368.00
2019-06-26T08:01:03.020Z,81312.00
2019-06-26T08:02:02.967Z,80832.00
2019-06-26T08:03:04.516Z,76768.00
2019-06-26T08:04:02.944Z,81664.00
2019-06-26T08:05:02.942Z,82240.00
2019-06-26T08:06:02.934Z,88224.00
2019-06-26T08:07:02.955Z,85888.00
2019-06-26T08:08:02.908Z,81952.00
2019-06-26T08:09:02.905Z,86752.00
2019-06-26T08:10:02.892Z,89696.00
2019-06-26T08:11:06.177Z,89088.00
2019-06-26T08:12:02.868Z,88128.00
2019-06-26T08:13:02.869Z,91328.00
2019-06-26T08:14:02.857Z,91104.00
2019-06-26T08:15:02.839Z,94944.00
2019-06-26T08:16:02.831Z,90688.00
2019-06-26T08:17:02.824Z,89056.00
2019-06-26T08:18:02.821Z,88384.00
2019-06-26T08:19:02.809Z,90336.00
2019-06-26T08:20:02.792Z,90560.00
2019-06-26T08:21:12.331Z,93024.00
2019-06-26T08:22:03.776Z,89760.00
2019-06-26T08:23:02.810Z,89600.00
2019-06-26T08:24:02.756Z,88096.00
2019-06-26T08:25:02.745Z,92800.00
2019-06-26T08:26:02.742Z,95616.00
2019-06-26T08:27:02.735Z,98816.00
2019-06-26T08:28:02.749Z,98016.00
2019-06-26T08:29:02.706Z,97472.00
2019-06-26T08:30:02.708Z,90944.00
2019-06-26T08:31:02.697Z,86048.00
2019-06-26T08:32:02.688Z,89920.00
2019-06-26T08:33:02.673Z,90016.00
2019-06-26T08:34:02.677Z,85632.00
2019-06-26T08:35:02.757Z,88800.00
2019-06-26T08:36:02.649Z,84736.00
2019-06-26T08:37:02.640Z,82464.00
2019-06-26T08:38:11.094Z,83168.00
2019-06-26T08:39:03.627Z,85760.00
2019-06-26T08:40:02.609Z,92704.00
2019-06-26T08:41:02.598Z,92640.00
2019-06-26T08:42:02.603Z,88768.00
2019-06-26T08:43:02.586Z,87520.00
2019-06-26T08:44:02.595Z,91040.00
2019-06-26T08:45:02.574Z,97120.00
2019-06-26T08:46:02.554Z,98752.00
2019-06-26T08:47:02.547Z,95424.00
2019-06-26T08:48:16.710Z,96032.00
2019-06-26T08:49:03.560Z,98144.00
2019-06-26T08:50:02.932Z,97312.00
2019-06-26T08:51:02.520Z,95168.00
2019-06-26T08:52:02.644Z,95328.00
2019-06-26T08:53:02.589Z,92224.00
2019-06-26T08:54:04.774Z,96416.00
2019-06-26T08:55:02.483Z,93536.00
2019-06-26T08:56:02.478Z,90464.00
2019-06-26T08:57:02.456Z,97280.00
2019-06-26T08:58:02.447Z,99168.00
2019-06-26T08:59:02.440Z,101568.00
2019-06-26T09:00:02.458Z,104256.00
2019-06-26T09:01:02.428Z,106240.00
2019-06-26T09:02:02.417Z,103616.00
2019-06-26T09:03:02.404Z,101696.00
2019-06-26T09:04:02.391Z,101952.00
2019-06-26T09:05:02.392Z,104704.00
2019-06-26T09:06:02.387Z,105664.00
2019-06-26T09:07:02.393Z,107040.00
2019-06-26T09:08:02.407Z,104736.00
2019-06-26T09:09:02.415Z,102112.00
2019-06-26T09:10:02.352Z,99776.00
2019-06-26T09:11:02.338Z,103584.00
2019-06-26T09:12:02.327Z,109152.00
2019-06-26T09:13:02.339Z,108128.00
2019-06-26T09:14:02.307Z,107072.00
2019-06-26T09:15:02.298Z,103776.00
2019-06-26T09:16:02.292Z,98624.00
2019-06-26T09:17:02.301Z,102144.00
2019-06-26T09:18:02.286Z,106048.00
2019-06-26T09:19:02.310Z,102656.00
2019-06-26T09:20:02.275Z,108096.00
2019-06-26T09:21:02.266Z,107136.00
2019-06-26T09:22:02.245Z,108544.00
2019-06-26T09:23:02.406Z,105856.00
2019-06-26T09:24:02.233Z,108608.00
2019-06-26T09:25:19.822Z,105888.00
2019-06-26T09:26:03.229Z,112960.00
2019-06-26T09:27:02.197Z,109216.00
2019-06-26T09:28:02.220Z,108832.00
2019-06-26T09:29:02.188Z,110112.00
2019-06-26T09:30:02.177Z,108448.00
2019-06-26T09:31:02.189Z,110880.00
2019-06-26T09:32:02.169Z,112800.00
2019-06-26T09:33:02.154Z,107552.00
2019-06-26T09:34:02.153Z,108128.00
2019-06-26T09:35:02.149Z,108704.00
2019-06-26T09:36:02.185Z,110816.00
2019-06-26T09:37:02.118Z,111008.00
2019-06-26T09:38:02.116Z,112224.00
2019-06-26T09:39:02.126Z,109952.00
2019-06-26T09:40:02.098Z,100672.00
2019-06-26T09:41:02.203Z,104448.00
2019-06-26T09:42:02.076Z,107104.00
2019-06-26T09:43:02.078Z,106880.00
2019-06-26T09:44:02.067Z,110752.00
2019-06-26T09:45:02.145Z,109728.00
2019-06-26T09:46:02.075Z,110560.00
2019-06-26T09:47:02.039Z,106976.00
2019-06-26T09:48:02.037Z,105120.00
2019-06-26T09:49:02.019Z,110432.00
2019-06-26T09:50:02.115Z,116288.00
2019-06-26T09:51:02.031Z,112480.00
2019-06-26T09:52:02.012Z,110880.00
2019-06-26T09:53:05.209Z,114400.00
2019-06-26T09:54:01.984Z,114816.00
2019-06-26T09:55:02.082Z,119904.00
2019-06-26T09:56:01.997Z,118720.00
2019-06-26T09:57:01.963Z,117216.00
2019-06-26T09:58:01.959Z,115584.00
2019-06-26T09:59:01.935Z,119168.00
2019-06-26T10:00:01.996Z,116768.00
2019-06-26T10:01:01.926Z,116832.00
2019-06-26T10:02:01.919Z,115488.00
2019-06-26T10:03:01.999Z,116320.00
2019-06-26T10:04:01.904Z,112704.00
2019-06-26T10:05:01.887Z,111840.00
2019-06-26T10:06:02.002Z,115264.00
2019-06-26T10:07:01.876Z,118816.00
2019-06-26T10:08:01.878Z,116192.00
2019-06-26T10:09:01.864Z,112736.00
2019-06-26T10:10:01.848Z,113984.00
2019-06-26T10:11:01.907Z,112384.00
2019-06-26T10:12:01.834Z,116864.00
2019-06-26T10:13:01.848Z,114944.00
2019-06-26T10:14:01.817Z,110336.00
2019-06-26T10:15:01.892Z,113088.00
2019-06-26T10:16:01.812Z,112736.00
2019-06-26T10:17:01.801Z,113504.00
2019-06-26T10:18:01.793Z,122240.00
2019-06-26T10:19:10.132Z,117696.00
2019-06-26T10:20:02.771Z,112704.00
2019-06-26T10:21:01.919Z,114272.00
2019-06-26T10:22:01.767Z,119872.00
2019-06-26T10:23:01.776Z,114496.00
2019-06-26T10:24:01.755Z,108320.00
2019-06-26T10:25:01.860Z,109408.00
2019-06-26T10:26:01.764Z,112960.00
2019-06-26T10:27:01.721Z,114144.00
2019-06-26T10:28:02.501Z,111680.00
2019-06-26T10:29:01.703Z,113312.00
2019-06-26T10:30:01.712Z,114080.00
2019-06-26T10:31:01.694Z,106496.00
2019-06-26T10:32:01.735Z,110432.00
2019-06-26T10:33:01.674Z,112544.00
2019-06-26T10:34:01.721Z,115200.00
2019-06-26T10:35:01.660Z,110240.00
2019-06-26T10:36:01.659Z,112064.00
2019-06-26T10:37:01.660Z,117344.00
2019-06-26T10:38:01.661Z,111264.00
2019-06-26T10:39:01.651Z,116448.00
2019-06-26T10:40:01.642Z,123168.00
2019-06-26T10:41:01.615Z,117824.00
2019-06-26T10:42:01.616Z,103424.00
2019-06-26T10:43:01.599Z,111648.00
2019-06-26T10:44:01.598Z,114144.00
2019-06-26T10:45:01.644Z,114848.00
2019-06-26T10:46:01.598Z,116256.00
2019-06-26T10:47:01.574Z,116288.00
2019-06-26T10:48:01.566Z,117504.00
2019-06-26T10:49:01.559Z,116544.00
2019-06-26T10:50:01.560Z,119872.00
2019-06-26T10:51:01.540Z,117216.00
2019-06-26T10:52:01.550Z,116704.00
2019-06-26T10:53:01.562Z,114144.00
2019-06-26T10:54:01.527Z,109696.00
2019-06-26T10:55:01.516Z,117440.00
2019-06-26T10:56:01.514Z,119424.00
2019-06-26T10:57:01.508Z,122240.00
2019-06-26T10:58:01.501Z,118176.00
2019-06-26T10:59:01.531Z,118752.00
2019-06-26T11:00:01.512Z,115040.00
2019-06-26T11:01:01.480Z,116512.00
2019-06-26T11:02:01.458Z,116192.00
2019-06-26T11:03:01.468Z,116256.00
2019-06-26T11:04:01.579Z,117152.00
2019-06-26T11:05:01.438Z,117248.00
2019-06-26T11:06:01.483Z,117536.00
2019-06-26T11:07:01.439Z,118976.00
2019-06-26T11:08:01.415Z,117408.00
2019-06-26T11:09:01.409Z,115616.00
2019-06-26T11:10:01.473Z,120192.00
2019-06-26T11:11:01.396Z,121120.00
2019-06-26T11:12:01.419Z,121088.00
2019-06-26T11:13:01.379Z,120288.00
2019-06-26T11:14:01.368Z,110752.00
2019-06-26T11:15:01.470Z,106912.00
2019-06-26T11:16:01.358Z,101664.00
2019-06-26T11:17:01.350Z,105472.00
2019-06-26T11:18:01.350Z,104288.00
2019-06-26T11:19:01.340Z,107904.00
2019-06-26T11:20:01.357Z,101280.00
2019-06-26T11:21:01.322Z,112416.00
2019-06-26T11:22:01.314Z,115680.00
2019-06-26T11:23:01.375Z,113888.00
2019-06-26T11:24:01.296Z,113472.00
2019-06-26T11:25:01.289Z,108544.00
2019-06-26T11:26:01.286Z,108288.00
2019-06-26T11:27:01.280Z,103264.00
2019-06-26T11:28:01.267Z,106816.00
2019-06-26T11:29:01.266Z,107424.00
2019-06-26T11:30:01.272Z,102880.00
2019-06-26T11:31:01.250Z,108288.00
2019-06-26T11:32:01.253Z,109088.00
2019-06-26T11:33:01.275Z,109472.00
2019-06-26T11:34:01.214Z,110368.00
2019-06-26T11:35:01.209Z,111232.00
2019-06-26T11:36:01.204Z,113088.00
2019-06-26T11:37:04.114Z,112384.00
2019-06-26T11:38:01.185Z,110272.00
2019-06-26T11:39:01.193Z,109504.00
2019-06-26T11:40:01.170Z,113024.00
2019-06-26T11:41:02.064Z,113248.00
2019-06-26T11:42:01.154Z,114592.00
2019-06-26T11:43:01.155Z,108256.00
2019-06-26T11:44:01.162Z,110912.00
2019-06-26T11:45:01.159Z,108288.00
2019-06-26T11:46:01.152Z,108160.00
2019-06-26T11:47:01.122Z,112640.00
2019-06-26T11:48:01.121Z,109184.00
2019-06-26T11:49:01.111Z,105088.00
2019-06-26T11:50:01.091Z,109088.00
2019-06-26T11:51:01.084Z,110912.00
2019-06-26T11:52:01.094Z,110464.00
2019-06-26T11:53:01.075Z,106496.00
2019-06-26T11:54:01.068Z,106336.00
2019-06-26T11:55:03.037Z,102752.00
2019-06-26T11:56:01.047Z,99936.00
2019-06-26T11:57:01.060Z,106912.00
2019-06-26T11:58:01.029Z,104480.00
2019-06-26T11:59:01.029Z,107264.00
2019-06-26T12:00:01.169Z,106400.00
2019-06-26T12:01:01.027Z,111552.00
2019-06-26T12:02:01.023Z,112992.00
2019-06-26T12:03:01.074Z,110624.00